Bearsdale, Illinois
Current Conditions -  °F | °C
As of 2:54 AM on Thursday 18 Dec 2014 (Local Time) from KDEC Reporting Station
Clear Clear  
Wind Chill: -8°   Ceiling: Unl
Heat Index: -4°   Visibility: 8mi
Dew Point: -7°   Wind: 5mph
Humidity: 84%   Direction: 110°ESE
Pressure: 30.28"   Gusts: NA
Location:  39.9062°N, 88.9645°W
Report Text: KDEC 180854Z AUTO 11004KT 8SM CLR M04/M07 A3028 RMK AO2 SLP262 T10441067 58010 TSNO
Loading
Personal Weather Stations






























Interactive Weather Map New forecast layout! Learn more

10-Day Weather Forecast

Advertisements
Track Severe Weather on mobile